Time;durP1;ratioP1;P1;durP2;ratioP2;P2;SDS_P1;SDS_P2;PMS_P1;PMS_P2;Temp;Humidity;BMP_temperature;BMP_pressure;BME280_temperature;BME280_humidity;BME280_pressure;Samples;Min_cycle;Max_cycle;Signal;HPM_P1;HPM_P2
2022/03/22 00:02:09;;;;;;;21.02;10.55;;;;;;;;;;5003506;28;20030;-76
2022/03/22 00:04:34;;;;;;;21.10;10.95;;;;;;;;;;5003743;28;20089;-76
2022/03/22 00:06:59;;;;;;;21.30;10.70;;;;;;;;;;5010430;28;20041;-76
2022/03/22 00:09:25;;;;;;;18.25;10.48;;;;;;;;;;5008500;28;20046;-76
2022/03/22 00:11:50;;;;;;;19.50;10.23;;;;;;;;;;5002524;28;20022;-76
2022/03/22 00:14:16;;;;;;;20.13;10.88;;;;;;;;;;5003901;28;20033;-75
2022/03/22 00:16:42;;;;;;;18.80;10.43;;;;;;;;;;5003312;28;20050;-75
2022/03/22 00:19:07;;;;;;;22.15;11.20;;;;;;;;;;5003581;28;20030;-75
2022/03/22 00:21:35;;;;;;;21.00;11.57;;;;;;;;;;5003440;28;20033;-75
2022/03/22 00:24:01;;;;;;;20.98;11.35;;;;;;;;;;5003599;28;20022;-75
2022/03/22 00:26:27;;;;;;;18.20;10.30;;;;;;;;;;5003423;28;20025;-74
2022/03/22 00:28:53;;;;;;;20.13;10.13;;;;;;;;;;5003639;28;20104;-76
2022/03/22 00:31:19;;;;;;;18.92;9.95;;;;;;;;;;5013944;28;20032;-76
2022/03/22 00:33:44;;;;;;;17.50;9.77;;;;;;;;;;5014321;28;20022;-75
2022/03/22 00:36:13;;;;;;;17.55;9.45;;;;;;;;;;5003315;28;20041;-76
2022/03/22 00:38:40;;;;;;;16.60;9.55;;;;;;;;;;5001873;28;20057;-76
2022/03/22 00:41:05;;;;;;;16.33;9.48;;;;;;;;;;5006365;28;20042;-76
2022/03/22 00:43:34;;;;;;;17.48;9.65;;;;;;;;;;5006676;28;20029;-76
2022/03/22 00:45:59;;;;;;;15.82;8.70;;;;;;;;;;5002887;28;20049;-76
2022/03/22 00:48:25;;;;;;;15.43;9.20;;;;;;;;;;5003108;28;20093;-76
2022/03/22 00:50:53;;;;;;;17.77;8.88;;;;;;;;;;5002854;28;20069;-76
2022/03/22 00:53:19;;;;;;;16.63;8.18;;;;;;;;;;5002959;28;20038;-76
2022/03/22 00:55:45;;;;;;;17.40;8.60;;;;;;;;;;5003138;28;20030;-75
2022/03/22 00:58:11;;;;;;;13.88;8.75;;;;;;;;;;5002959;28;20022;-75
2022/03/22 01:00:37;;;;;;;17.05;8.73;;;;;;;;;;5002656;28;20045;-75
2022/03/22 01:03:04;;;;;;;15.45;8.77;;;;;;;;;;5001577;28;20029;-76
2022/03/22 01:05:30;;;;;;;15.43;9.35;;;;;;;;;;5002477;28;20030;-75
2022/03/22 01:08:10;;;;;;;16.02;8.60;;;;;;;;;;5002151;28;20041;-76
2022/03/22 01:10:38;;;;;;;15.60;8.15;;;;;;;;;;5004611;28;20089;-75
2022/03/22 01:13:06;;;;;;;16.83;8.25;;;;;;;;;;5002340;28;20029;-76
2022/03/22 01:15:33;;;;;;;14.50;8.77;;;;;;;;;;5001685;28;20314;-75
2022/03/22 01:18:05;;;;;;;16.98;8.50;;;;;;;;;;5002562;28;20030;-75
2022/03/22 01:20:36;;;;;;;16.08;8.73;;;;;;;;;;5002261;28;20022;-75
2022/03/22 01:23:04;;;;;;;17.70;8.95;;;;;;;;;;5002527;28;20332;-75
2022/03/22 01:25:34;;;;;;;14.93;7.82;;;;;;;;;;5001772;28;20380;-75
2022/03/22 01:28:02;;;;;;;13.82;8.27;;;;;;;;;;5002131;28;20097;-74
2022/03/22 01:30:28;;;;;;;16.40;8.43;;;;;;;;;;5002360;28;20036;-75
2022/03/22 01:32:55;;;;;;;14.80;7.93;;;;;;;;;;5002326;28;20069;-75
2022/03/22 01:35:22;;;;;;;14.48;8.50;;;;;;;;;;5002572;28;20097;-75
2022/03/22 01:37:48;;;;;;;13.60;7.97;;;;;;;;;;5003650;28;20114;-75
2022/03/22 01:40:14;;;;;;;13.93;8.00;;;;;;;;;;5021980;28;20026;-75
2022/03/22 01:42:40;;;;;;;20.58;8.55;;;;;;;;;;5008923;28;20033;-76
2022/03/22 01:45:07;;;;;;;13.02;8.13;;;;;;;;;;5013232;28;20218;-75
2022/03/22 01:47:35;;;;;;;15.30;8.20;;;;;;;;;;5002031;28;20307;-76
2022/03/22 01:50:01;;;;;;;18.75;8.77;;;;;;;;;;5021208;28;20431;-76
2022/03/22 01:52:26;;;;;;;18.70;9.05;;;;;;;;;;5021545;28;20033;-76
2022/03/22 01:54:55;;;;;;;13.40;7.57;;;;;;;;;;5022056;28;20022;-76
2022/03/22 01:57:22;;;;;;;15.23;8.50;;;;;;;;;;5018840;28;20018;-74
2022/03/22 01:59:48;;;;;;;14.10;8.15;;;;;;;;;;5002029;28;20030;-76
2022/03/22 02:07:45;;;;;;;14.48;7.93;;;;;;;;;;5000124;28;20097;-76
2022/03/22 02:10:10;;;;;;;14.05;7.72;;;;;;;;;;5002069;28;20034;-75
2022/03/22 02:12:36;;;;;;;18.73;8.73;;;;;;;;;;5002921;28;20333;-77
2022/03/22 02:15:01;;;;;;;17.98;9.50;;;;;;;;;;5002051;28;20037;-77
2022/03/22 02:17:27;;;;;;;19.33;9.48;;;;;;;;;;5003171;28;20054;-76
2022/03/22 02:19:54;;;;;;;17.70;9.35;;;;;;;;;;5021115;28;20033;-76
2022/03/22 02:22:25;;;;;;;14.98;8.48;;;;;;;;;;5021054;28;20314;-74
2022/03/22 02:24:50;;;;;;;15.95;8.73;;;;;;;;;;4981880;28;20101;-77
2022/03/22 02:27:15;;;;;;;16.65;8.60;;;;;;;;;;4990685;28;20348;-74
2022/03/22 02:29:42;;;;;;;26.95;11.77;;;;;;;;;;5004529;28;20033;-74
2022/03/22 02:32:08;;;;;;;21.45;10.27;;;;;;;;;;5000414;28;20019;-76
2022/03/22 02:34:40;;;;;;;22.52;10.98;;;;;;;;;;5001599;28;20041;-75
2022/03/22 02:37:05;;;;;;;23.90;10.45;;;;;;;;;;5014615;28;20041;-76
2022/03/22 02:39:32;;;;;;;18.38;10.57;;;;;;;;;;5002515;28;20057;-75
2022/03/22 02:41:57;;;;;;;26.35;13.25;;;;;;;;;;5001280;28;20018;-76
2022/03/22 02:44:23;;;;;;;24.45;10.27;;;;;;;;;;5014041;28;20080;-75
2022/03/22 02:46:48;;;;;;;20.45;10.73;;;;;;;;;;5007277;28;20038;-77
2022/03/22 02:49:14;;;;;;;17.05;9.18;;;;;;;;;;5016719;28;20209;-77
2022/03/22 02:51:40;;;;;;;18.25;9.15;;;;;;;;;;5020623;28;20321;-77
2022/03/22 02:54:06;;;;;;;15.63;8.82;;;;;;;;;;5021221;28;20025;-74
2022/03/22 02:56:31;;;;;;;14.88;8.60;;;;;;;;;;5020925;28;20325;-74
2022/03/22 02:58:57;;;;;;;16.60;8.77;;;;;;;;;;5007713;28;20267;-74
2022/03/22 03:01:22;;;;;;;14.60;8.00;;;;;;;;;;5001307;28;20031;-74
2022/03/22 03:03:48;;;;;;;14.27;7.68;;;;;;;;;;5001248;28;20061;-74
2022/03/22 03:06:13;;;;;;;13.48;7.88;;;;;;;;;;5004012;28;20310;-74
2022/03/22 03:08:38;;;;;;;13.30;8.30;;;;;;;;;;5014065;28;20029;-74
2022/03/22 03:11:04;;;;;;;15.23;8.07;;;;;;;;;;5020898;28;20036;-74
2022/03/22 03:14:38;;;;;;;13.35;8.27;;;;;;;;;;5014344;28;20374;-74
2022/03/22 03:16:16;;;;;;;14.05;7.75;;;;;;;;;;5002349;28;20062;-75
2022/03/22 03:18:41;;;;;;;16.70;8.15;;;;;;;;;;5001959;28;20380;-73
2022/03/22 03:21:06;;;;;;;16.33;8.68;;;;;;;;;;5004753;28;20030;-76
2022/03/22 03:23:32;;;;;;;13.85;8.32;;;;;;;;;;5017287;28;20030;-76
2022/03/22 03:25:57;;;;;;;14.30;8.25;;;;;;;;;;5004331;28;20041;-76
2022/03/22 03:28:23;;;;;;;13.55;8.25;;;;;;;;;;5008031;28;20026;-76
2022/03/22 03:30:48;;;;;;;14.30;8.10;;;;;;;;;;5020537;28;20038;-75
2022/03/22 03:33:14;;;;;;;15.13;8.50;;;;;;;;;;5019478;28;20097;-75
2022/03/22 03:35:39;;;;;;;15.27;8.43;;;;;;;;;;5020496;28;20343;-75
2022/03/22 03:38:04;;;;;;;14.20;8.57;;;;;;;;;;5017394;28;20292;-74
2022/03/22 03:41:53;;;;;;;14.95;8.77;;;;;;;;;;5004476;28;20030;-75
2022/03/22 03:43:15;;;;;;;18.60;8.48;;;;;;;;;;5004207;28;20034;-75
2022/03/22 03:48:24;;;;;;;17.05;8.43;;;;;;;;;;5011290;28;20108;-76
2022/03/22 03:50:50;;;;;;;16.25;7.82;;;;;;;;;;5009909;28;20330;-75
2022/03/22 03:53:15;;;;;;;16.38;8.00;;;;;;;;;;5019129;28;20340;-76
2022/03/22 03:55:41;;;;;;;16.10;8.38;;;;;;;;;;5024125;28;20029;-75
2022/03/22 03:58:06;;;;;;;13.40;7.80;;;;;;;;;;5019127;28;20188;-75
2022/03/22 04:00:32;;;;;;;14.15;7.45;;;;;;;;;;5008934;28;20254;-75
2022/03/22 04:02:57;;;;;;;14.85;8.23;;;;;;;;;;5007236;28;20069;-76
2022/03/22 04:05:22;;;;;;;14.82;7.97;;;;;;;;;;5003784;28;20030;-76
2022/03/22 04:07:48;;;;;;;15.18;8.38;;;;;;;;;;5005041;28;20549;-76
2022/03/22 04:10:13;;;;;;;18.23;8.63;;;;;;;;;;5023505;28;20501;-75
2022/03/22 04:12:43;;;;;;;15.30;8.48;;;;;;;;;;5023603;28;20124;-75
2022/03/22 04:15:08;;;;;;;14.32;7.63;;;;;;;;;;5023498;28;20030;-75
2022/03/22 04:17:34;;;;;;;13.57;7.88;;;;;;;;;;5023424;28;20052;-76
2022/03/22 04:20:00;;;;;;;20.02;7.88;;;;;;;;;;5003625;28;20030;-75
2022/03/22 04:22:25;;;;;;;15.32;7.57;;;;;;;;;;5003569;28;20097;-75
2022/03/22 04:24:51;;;;;;;13.90;7.55;;;;;;;;;;5002593;28;20069;-76
2022/03/22 04:32:44;;;;;;;14.32;8.02;;;;;;;;;;5003802;28;20214;-76
2022/03/22 04:35:12;;;;;;;14.80;8.10;;;;;;;;;;5003257;28;20022;-74
2022/03/22 04:37:38;;;;;;;14.23;7.82;;;;;;;;;;5003297;28;20274;-76
2022/03/22 04:40:04;;;;;;;14.90;8.15;;;;;;;;;;5022319;28;20045;-75
2022/03/22 04:42:30;;;;;;;15.55;8.77;;;;;;;;;;5022645;28;20080;-75
2022/03/22 04:44:55;;;;;;;14.63;8.07;;;;;;;;;;5022842;28;20029;-75
2022/03/22 04:47:20;;;;;;;18.60;8.63;;;;;;;;;;5022662;28;20333;-75
2022/03/22 04:49:46;;;;;;;13.15;8.10;;;;;;;;;;5013366;28;20032;-75
2022/03/22 04:57:39;;;;;;;15.18;8.30;;;;;;;;;;4999448;28;20110;-75
2022/03/22 05:00:05;;;;;;;17.40;8.70;;;;;;;;;;5020665;28;20025;-75
2022/03/22 05:02:31;;;;;;;18.27;9.05;;;;;;;;;;5002962;28;20022;-75
2022/03/22 05:04:56;;;;;;;18.00;8.57;;;;;;;;;;5002646;28;20385;-76
2022/03/22 05:07:22;;;;;;;17.55;9.00;;;;;;;;;;5002167;28;20033;-76
2022/03/22 05:09:47;;;;;;;19.08;8.98;;;;;;;;;;5018263;28;20297;-75
2022/03/22 05:12:15;;;;;;;16.00;8.95;;;;;;;;;;5022322;28;20044;-76
2022/03/22 05:14:42;;;;;;;15.98;8.73;;;;;;;;;;5022486;28;20026;-75
2022/03/22 05:17:11;;;;;;;16.80;8.38;;;;;;;;;;5022133;28;20207;-76
2022/03/22 05:19:37;;;;;;;18.33;9.02;;;;;;;;;;5006835;28;20030;-76
2022/03/22 05:22:02;;;;;;;17.00;9.30;;;;;;;;;;5004714;28;20026;-76
2022/03/22 05:24:28;;;;;;;15.02;9.00;;;;;;;;;;5002600;28;20039;-76
2022/03/22 05:26:53;;;;;;;15.88;8.80;;;;;;;;;;5002644;28;20034;-75
2022/03/22 05:29:18;;;;;;;17.17;8.90;;;;;;;;;;5005302;28;20273;-75
2022/03/22 05:31:45;;;;;;;18.67;9.30;;;;;;;;;;5004117;28;20330;-75
2022/03/22 05:34:11;;;;;;;17.95;8.85;;;;;;;;;;5002176;28;20037;-76
2022/03/22 05:36:36;;;;;;;15.10;8.45;;;;;;;;;;5001988;28;20042;-76
2022/03/22 05:39:01;;;;;;;16.45;9.00;;;;;;;;;;5004510;28;20053;-76
2022/03/22 05:41:27;;;;;;;18.17;9.57;;;;;;;;;;5006802;28;20214;-76
2022/03/22 05:43:52;;;;;;;19.60;9.13;;;;;;;;;;5002119;28;20042;-74
2022/03/22 05:46:18;;;;;;;16.23;8.88;;;;;;;;;;5003369;28;20030;-75
2022/03/22 05:48:44;;;;;;;15.40;8.73;;;;;;;;;;5001802;28;20030;-75
2022/03/22 05:51:10;;;;;;;16.65;8.48;;;;;;;;;;5021024;28;20072;-75
2022/03/22 05:53:36;;;;;;;17.08;9.73;;;;;;;;;;5021483;28;20030;-75
2022/03/22 05:56:01;;;;;;;17.58;9.50;;;;;;;;;;5009151;28;20045;-75
2022/03/22 05:58:26;;;;;;;17.13;9.73;;;;;;;;;;5002026;28;20029;-75
2022/03/22 06:00:52;;;;;;;20.75;9.95;;;;;;;;;;5003573;28;20034;-76
2022/03/22 06:03:18;;;;;;;23.65;10.25;;;;;;;;;;5014950;28;20033;-76
2022/03/22 06:05:43;;;;;;;19.95;9.70;;;;;;;;;;5019305;28;20026;-76
2022/03/22 06:08:09;;;;;;;20.40;10.40;;;;;;;;;;5021285;28;20072;-76
2022/03/22 06:10:34;;;;;;;19.42;10.15;;;;;;;;;;5020158;28;20026;-75
2022/03/22 06:13:00;;;;;;;19.42;10.25;;;;;;;;;;5001422;28;20061;-76
2022/03/22 06:15:28;;;;;;;23.00;10.40;;;;;;;;;;5009208;28;20034;-76
2022/03/22 06:18:04;;;;;;;20.15;10.02;;;;;;;;;;5021416;28;20025;-75
2022/03/22 06:20:35;;;;;;;21.40;10.18;;;;;;;;;;5021189;28;20030;-75
2022/03/22 06:23:02;;;;;;;17.33;9.77;;;;;;;;;;5012821;28;20096;-75
2022/03/22 06:25:28;;;;;;;22.83;9.88;;;;;;;;;;5001580;28;20314;-75
2022/03/22 06:27:54;;;;;;;28.95;9.23;;;;;;;;;;5001613;28;20037;-75
2022/03/22 06:30:21;;;;;;;28.85;10.10;;;;;;;;;;5001192;28;20034;-75
2022/03/22 06:32:50;;;;;;;20.08;9.68;;;;;;;;;;5001049;28;20036;-75
2022/03/22 06:35:28;;;;;;;20.42;9.68;;;;;;;;;;5001374;28;20258;-76
2022/03/22 06:37:54;;;;;;;22.35;10.63;;;;;;;;;;5001125;28;20038;-75
2022/03/22 06:40:21;;;;;;;24.55;10.82;;;;;;;;;;5001227;28;20106;-75
2022/03/22 06:42:47;;;;;;;19.38;9.70;;;;;;;;;;5000807;28;20060;-76
2022/03/22 06:45:13;;;;;;;20.17;9.75;;;;;;;;;;5002886;28;20022;-76
2022/03/22 06:47:40;;;;;;;20.55;9.63;;;;;;;;;;5015232;28;20030;-75
2022/03/22 06:50:08;;;;;;;20.75;10.20;;;;;;;;;;5008635;28;20114;-73
2022/03/22 06:52:33;;;;;;;18.20;9.45;;;;;;;;;;5001694;28;20364;-75
2022/03/22 06:54:59;;;;;;;18.63;9.82;;;;;;;;;;5001370;28;20034;-75
2022/03/22 06:57:27;;;;;;;19.42;9.82;;;;;;;;;;5002782;28;20023;-75
2022/03/22 06:59:52;;;;;;;20.77;9.80;;;;;;;;;;5006228;28;20038;-76
2022/03/22 07:02:18;;;;;;;19.58;10.07;;;;;;;;;;5013999;28;20026;-76
2022/03/22 07:04:44;;;;;;;20.73;11.00;;;;;;;;;;5001609;28;20233;-76
2022/03/22 07:07:09;;;;;;;24.35;10.65;;;;;;;;;;5000634;28;20032;-74
2022/03/22 07:09:35;;;;;;;19.70;10.60;;;;;;;;;;5001109;28;20027;-74
2022/03/22 07:12:00;;;;;;;17.83;10.07;;;;;;;;;;5001963;28;20034;-73
2022/03/22 07:14:27;;;;;;;23.42;10.73;;;;;;;;;;4997334;28;20057;-76
2022/03/22 07:16:53;;;;;;;19.15;10.55;;;;;;;;;;4996747;28;20334;-75
2022/03/22 07:19:22;;;;;;;23.75;10.10;;;;;;;;;;4999120;28;20045;-76
2022/03/22 07:21:49;;;;;;;24.80;10.38;;;;;;;;;;5004109;28;20038;-76
2022/03/22 07:24:18;;;;;;;30.42;10.85;;;;;;;;;;5007025;28;20064;-76
2022/03/22 07:26:43;;;;;;;25.23;10.48;;;;;;;;;;5001000;28;20182;-76
2022/03/22 07:29:09;;;;;;;20.38;10.85;;;;;;;;;;5007153;28;20407;-76
2022/03/22 07:31:37;;;;;;;19.33;9.80;;;;;;;;;;5016779;28;20030;-76
2022/03/22 07:34:07;;;;;;;21.50;10.18;;;;;;;;;;5019175;28;20045;-76
2022/03/22 07:36:36;;;;;;;19.40;9.63;;;;;;;;;;5004015;28;20018;-76
2022/03/22 07:39:03;;;;;;;22.38;10.45;;;;;;;;;;5007094;28;20026;-76
2022/03/22 07:41:28;;;;;;;17.55;9.98;;;;;;;;;;5010468;28;20032;-76
2022/03/22 07:43:54;;;;;;;18.27;9.88;;;;;;;;;;5021263;28;20101;-74
2022/03/22 07:46:22;;;;;;;16.88;10.02;;;;;;;;;;5004438;28;20352;-74
2022/03/22 07:48:47;;;;;;;17.80;10.23;;;;;;;;;;4998317;28;20188;-74
2022/03/22 07:53:56;;;;;;;19.02;10.00;;;;;;;;;;5009291;28;20069;-73
2022/03/22 07:56:22;;;;;;;18.65;9.57;;;;;;;;;;5013443;28;20030;-73
2022/03/22 07:58:47;;;;;;;16.58;9.65;;;;;;;;;;5006410;28;20187;-74
2022/03/22 08:01:12;;;;;;;16.92;9.20;;;;;;;;;;5010134;28;20030;-74
2022/03/22 08:03:41;;;;;;;19.00;9.60;;;;;;;;;;5017420;28;20341;-74
2022/03/22 08:06:07;;;;;;;23.13;9.88;;;;;;;;;;5011294;28;20082;-74
2022/03/22 08:08:34;;;;;;;16.60;9.02;;;;;;;;;;5019371;28;20033;-74
2022/03/22 08:11:01;;;;;;;20.33;9.60;;;;;;;;;;5019071;28;20072;-73
2022/03/22 08:13:27;;;;;;;16.88;9.20;;;;;;;;;;5005536;28;20030;-73
2022/03/22 08:15:52;;;;;;;18.20;9.15;;;;;;;;;;4997649;28;20171;-74
2022/03/22 08:18:17;;;;;;;17.55;8.90;;;;;;;;;;5018970;28;20101;-75
2022/03/22 08:20:43;;;;;;;16.13;8.70;;;;;;;;;;5006878;28;20025;-73
2022/03/22 08:23:09;;;;;;;22.00;9.13;;;;;;;;;;5017288;28;20037;-76
2022/03/22 08:25:37;;;;;;;14.60;8.15;;;;;;;;;;5020560;28;20030;-78
2022/03/22 08:28:04;;;;;;;21.00;9.40;;;;;;;;;;5034289;28;20026;-77
2022/03/22 08:30:31;;;;;;;17.70;8.93;;;;;;;;;;5011142;28;20068;-77
2022/03/22 08:33:03;;;;;;;16.08;8.40;;;;;;;;;;5008027;28;20281;-77
2022/03/22 08:35:29;;;;;;;14.50;7.80;;;;;;;;;;4993367;28;20022;-77
2022/03/22 08:37:55;;;;;;;13.10;7.32;;;;;;;;;;5033552;28;20258;-76
2022/03/22 08:40:20;;;;;;;15.27;7.47;;;;;;;;;;5010233;28;20345;-77
2022/03/22 08:42:47;;;;;;;14.65;7.18;;;;;;;;;;5019564;28;20026;-77
2022/03/22 08:45:15;;;;;;;12.85;7.18;;;;;;;;;;5005127;28;20034;-77
2022/03/22 08:47:42;;;;;;;23.88;11.73;;;;;;;;;;5016606;28;20332;-78
2022/03/22 08:50:12;;;;;;;18.77;7.60;;;;;;;;;;5006490;28;20085;-77
2022/03/22 08:52:38;;;;;;;14.93;6.75;;;;;;;;;;5033904;28;20088;-77
2022/03/22 08:55:07;;;;;;;13.95;6.53;;;;;;;;;;5009522;28;20337;-77
2022/03/22 08:57:35;;;;;;;10.55;6.20;;;;;;;;;;5006620;28;20030;-77
2022/03/22 09:00:08;;;;;;;10.73;5.22;;;;;;;;;;5007436;28;20030;-78
2022/03/22 09:02:35;;;;;;;12.55;5.95;;;;;;;;;;5019096;28;20022;-77
2022/03/22 09:07:45;;;;;;;15.05;6.10;;;;;;;;;;5007974;28;20029;-77
2022/03/22 09:10:12;;;;;;;14.00;5.90;;;;;;;;;;5019011;28;20033;-77
2022/03/22 09:12:37;;;;;;;9.77;5.60;;;;;;;;;;5017770;28;20053;-77
2022/03/22 09:15:03;;;;;;;10.48;5.78;;;;;;;;;;5005859;28;20034;-77
2022/03/22 09:17:28;;;;;;;12.48;5.45;;;;;;;;;;5033586;28;20026;-77
2022/03/22 09:19:53;;;;;;;11.40;5.25;;;;;;;;;;5009443;28;20018;-77
2022/03/22 09:22:19;;;;;;;9.48;5.55;;;;;;;;;;5021966;28;20022;-78
2022/03/22 09:24:44;;;;;;;10.82;6.00;;;;;;;;;;5010066;28;20026;-77
2022/03/22 09:27:10;;;;;;;12.43;6.30;;;;;;;;;;5001960;28;20022;-76
2022/03/22 09:29:35;;;;;;;14.13;5.65;;;;;;;;;;5001940;28;20038;-77
2022/03/22 09:32:01;;;;;;;11.48;5.38;;;;;;;;;;5014262;28;20049;-78
2022/03/22 09:34:28;;;;;;;10.82;5.90;;;;;;;;;;5027799;28;20026;-76
2022/03/22 09:36:53;;;;;;;13.55;5.50;;;;;;;;;;5014947;28;20034;-76
2022/03/22 09:39:19;;;;;;;12.85;6.28;;;;;;;;;;5011567;28;20356;-77
2022/03/22 09:41:48;;;;;;;13.10;5.72;;;;;;;;;;4990305;28;20070;-79
2022/03/22 09:44:17;;;;;;;10.02;5.80;;;;;;;;;;4998657;28;20306;-79
2022/03/22 09:46:48;;;;;;;9.63;5.50;;;;;;;;;;4981239;28;20069;-78
2022/03/22 09:49:16;;;;;;;10.73;6.05;;;;;;;;;;4981345;28;20438;-79
2022/03/22 09:51:45;;;;;;;9.07;4.78;;;;;;;;;;4981277;28;20034;-78
2022/03/22 09:54:19;;;;;;;11.70;5.38;;;;;;;;;;4991832;28;20051;-79
2022/03/22 09:56:46;;;;;;;10.13;5.43;;;;;;;;;;4983408;28;20357;-77
2022/03/22 09:59:12;;;;;;;10.98;5.70;;;;;;;;;;4987884;28;20026;-74
2022/03/22 10:01:38;;;;;;;10.05;5.63;;;;;;;;;;4984861;28;20038;-73
2022/03/22 10:04:06;;;;;;;12.10;5.30;;;;;;;;;;5004036;28;20323;-74
2022/03/22 10:06:33;;;;;;;10.52;5.80;;;;;;;;;;4998598;28;20101;-74
2022/03/22 10:09:00;;;;;;;8.63;5.03;;;;;;;;;;4988950;28;20082;-74
2022/03/22 10:11:37;;;;;;;11.88;5.95;;;;;;;;;;4998155;28;20034;-74
2022/03/22 10:14:03;;;;;;;12.90;5.90;;;;;;;;;;4981890;28;20217;-74
2022/03/22 10:16:28;;;;;;;9.32;5.63;;;;;;;;;;4981072;28;20026;-74
2022/03/22 10:18:54;;;;;;;10.43;6.00;;;;;;;;;;4982666;28;20029;-75
2022/03/22 10:21:20;;;;;;;9.55;5.38;;;;;;;;;;4982912;28;20030;-74
2022/03/22 10:23:55;;;;;;;14.13;6.07;;;;;;;;;;4993228;28;20019;-74
2022/03/22 10:26:21;;;;;;;12.98;5.95;;;;;;;;;;4987357;28;20031;-74
2022/03/22 10:28:54;;;;;;;11.23;5.82;;;;;;;;;;4994080;28;20031;-74
2022/03/22 10:31:32;;;;;;;10.02;5.18;;;;;;;;;;4994321;28;20038;-74
2022/03/22 10:33:58;;;;;;;10.00;5.65;;;;;;;;;;5000148;28;20037;-74
2022/03/22 10:36:24;;;;;;;10.20;5.57;;;;;;;;;;4994418;28;20371;-74
2022/03/22 10:38:58;;;;;;;9.43;5.97;;;;;;;;;;5002903;28;20109;-74
2022/03/22 10:41:28;;;;;;;11.48;5.78;;;;;;;;;;4986678;28;20035;-75
2022/03/22 10:44:13;;;;;;;13.23;6.28;;;;;;;;;;4982913;28;20069;-74
2022/03/22 10:46:38;;;;;;;11.30;5.50;;;;;;;;;;4985028;28;20046;-75
2022/03/22 10:49:07;;;;;;;12.05;5.95;;;;;;;;;;4994792;28;20030;-72
2022/03/22 10:51:45;;;;;;;11.13;5.63;;;;;;;;;;4985411;28;20353;-74
2022/03/22 10:54:17;;;;;;;9.85;5.50;;;;;;;;;;4994125;28;20026;-74
2022/03/22 10:56:48;;;;;;;10.13;5.57;;;;;;;;;;5001888;28;20026;-75
2022/03/22 10:59:18;;;;;;;8.30;5.20;;;;;;;;;;4986243;28;20080;-74
2022/03/22 11:01:46;;;;;;;8.73;5.60;;;;;;;;;;4998244;28;20018;-74
2022/03/22 11:04:16;;;;;;;10.05;5.53;;;;;;;;;;4985819;28;20309;-74
2022/03/22 11:06:43;;;;;;;10.70;5.25;;;;;;;;;;4984777;28;20030;-74
2022/03/22 11:09:09;;;;;;;9.20;5.07;;;;;;;;;;4998842;28;20033;-79
2022/03/22 11:11:35;;;;;;;10.35;5.80;;;;;;;;;;5005676;28;20030;-78
2022/03/22 11:14:02;;;;;;;8.25;4.93;;;;;;;;;;5004340;28;20030;-77
2022/03/22 11:16:31;;;;;;;7.97;4.75;;;;;;;;;;5004313;28;20018;-77
2022/03/22 11:18:59;;;;;;;11.65;5.55;;;;;;;;;;5003881;28;20054;-76
2022/03/22 11:21:25;;;;;;;11.35;5.38;;;;;;;;;;5009840;28;20019;-75
2022/03/22 11:23:51;;;;;;;10.73;5.70;;;;;;;;;;4995360;28;20038;-75
2022/03/22 11:26:20;;;;;;;9.63;5.35;;;;;;;;;;5002334;28;20275;-73
2022/03/22 11:28:48;;;;;;;8.20;5.22;;;;;;;;;;4996653;28;20085;-73
2022/03/22 11:31:17;;;;;;;8.70;5.40;;;;;;;;;;4994391;28;20041;-74
2022/03/22 11:36:38;;;;;;;8.80;5.43;;;;;;;;;;4988438;28;20090;-74
2022/03/22 11:39:04;;;;;;;13.02;5.57;;;;;;;;;;4999996;28;20338;-77
2022/03/22 11:44:39;;;;;;;10.00;5.40;;;;;;;;;;5022650;28;20033;-74
2022/03/22 11:47:09;;;;;;;11.32;5.63;;;;;;;;;;5023251;28;20312;-74
2022/03/22 11:49:52;;;;;;;12.63;5.97;;;;;;;;;;5007267;28;20018;-74
2022/03/22 11:52:23;;;;;;;9.52;5.60;;;;;;;;;;5003679;28;20234;-74
2022/03/22 11:55:00;;;;;;;13.65;6.15;;;;;;;;;;5003977;28;20085;-74
2022/03/22 11:57:28;;;;;;;9.40;5.47;;;;;;;;;;5002792;28;20022;-74
2022/03/22 11:59:54;;;;;;;12.55;5.88;;;;;;;;;;5001978;28;20418;-74
2022/03/22 12:02:34;;;;;;;10.38;5.65;;;;;;;;;;5003869;28;20025;-74
2022/03/22 12:05:01;;;;;;;11.90;6.10;;;;;;;;;;5003760;28;20272;-74
2022/03/22 12:07:35;;;;;;;10.13;5.20;;;;;;;;;;5003674;28;20022;-74
2022/03/22 12:10:12;;;;;;;9.23;5.80;;;;;;;;;;5003364;28;20027;-74
2022/03/22 12:12:40;;;;;;;11.95;5.85;;;;;;;;;;5003447;28;20018;-74
2022/03/22 12:15:09;;;;;;;11.88;6.65;;;;;;;;;;5003650;28;20022;-75
2022/03/22 12:17:35;;;;;;;11.60;6.45;;;;;;;;;;5001003;28;20237;-76
2022/03/22 12:20:08;;;;;;;11.98;6.38;;;;;;;;;;5003433;28;20049;-74
2022/03/22 12:22:41;;;;;;;12.57;6.70;;;;;;;;;;5003508;28;20251;-73
2022/03/22 12:25:09;;;;;;;12.25;6.50;;;;;;;;;;5003478;28;20026;-75
2022/03/22 12:27:34;;;;;;;14.32;6.43;;;;;;;;;;5004962;28;20026;-75
2022/03/22 12:30:00;;;;;;;12.20;6.28;;;;;;;;;;5026246;28;20029;-75
2022/03/22 12:32:27;;;;;;;12.05;6.10;;;;;;;;;;5022742;28;20026;-75
2022/03/22 12:34:52;;;;;;;13.73;6.28;;;;;;;;;;5022810;28;20051;-74
2022/03/22 12:37:18;;;;;;;13.05;5.90;;;;;;;;;;5022377;28;20314;-74
2022/03/22 12:39:45;;;;;;;12.38;6.10;;;;;;;;;;5023020;28;20085;-74
2022/03/22 12:42:13;;;;;;;9.65;6.00;;;;;;;;;;5022565;28;20033;-74
2022/03/22 12:44:39;;;;;;;11.60;5.82;;;;;;;;;;5022850;28;20265;-75
2022/03/22 12:47:06;;;;;;;11.32;6.18;;;;;;;;;;5022718;28;20022;-73
2022/03/22 12:49:40;;;;;;;16.13;6.45;;;;;;;;;;5021025;28;20240;-75
2022/03/22 12:52:08;;;;;;;10.77;6.25;;;;;;;;;;5021291;28;20068;-73
2022/03/22 12:54:41;;;;;;;12.55;6.28;;;;;;;;;;5022864;28;20030;-74
2022/03/22 12:57:15;;;;;;;11.77;5.90;;;;;;;;;;5022152;28;20032;-73
2022/03/22 12:59:41;;;;;;;14.32;6.45;;;;;;;;;;5022531;28;20274;-74
2022/03/22 13:02:07;;;;;;;11.05;6.07;;;;;;;;;;5022279;28;20322;-73
2022/03/22 13:04:38;;;;;;;11.40;5.88;;;;;;;;;;5037358;28;20199;-72
2022/03/22 13:07:08;;;;;;;13.57;6.75;;;;;;;;;;5002254;28;20027;-72
2022/03/22 13:12:20;;;;;;;9.05;5.65;;;;;;;;;;5002438;28;20054;-73
2022/03/22 13:17:43;;;;;;;11.20;6.70;;;;;;;;;;5002776;28;20285;-72
2022/03/22 13:20:27;;;;;;;12.07;5.93;;;;;;;;;;5000729;28;20022;-72
2022/03/22 13:23:06;;;;;;;12.82;6.47;;;;;;;;;;5002411;28;20281;-73
2022/03/22 13:25:36;;;;;;;10.77;6.30;;;;;;;;;;5002111;28;20026;-72
2022/03/22 13:28:10;;;;;;;11.95;6.18;;;;;;;;;;5002115;28;20022;-72
2022/03/22 13:30:44;;;;;;;12.00;6.00;;;;;;;;;;5002341;28;20026;-72
2022/03/22 13:33:22;;;;;;;9.65;6.05;;;;;;;;;;5001993;28;20262;-72
2022/03/22 13:35:59;;;;;;;14.75;6.72;;;;;;;;;;5001791;28;20171;-72
2022/03/22 13:38:28;;;;;;;11.60;5.90;;;;;;;;;;5009228;28;20101;-72
2022/03/22 13:40:58;;;;;;;9.27;5.75;;;;;;;;;;5021562;28;20034;-72
2022/03/22 13:43:25;;;;;;;11.90;6.63;;;;;;;;;;5021538;28;20032;-72
2022/03/22 13:45:53;;;;;;;12.35;6.30;;;;;;;;;;5021405;28;20033;-72
2022/03/22 13:48:20;;;;;;;10.45;6.43;;;;;;;;;;5021599;28;20250;-73
2022/03/22 13:50:48;;;;;;;12.77;6.00;;;;;;;;;;5021390;28;20075;-74
2022/03/22 13:53:21;;;;;;;13.75;6.97;;;;;;;;;;5020226;28;20106;-73
2022/03/22 13:56:07;;;;;;;11.50;5.90;;;;;;;;;;5021373;28;20257;-72
2022/03/22 13:58:41;;;;;;;13.75;6.43;;;;;;;;;;5021172;28;20333;-73
2022/03/22 14:01:10;;;;;;;10.65;6.25;;;;;;;;;;5020903;28;20294;-73
2022/03/22 14:03:35;;;;;;;11.50;6.35;;;;;;;;;;5021116;28;20022;-72
2022/03/22 14:06:01;;;;;;;10.57;5.97;;;;;;;;;;5021206;28;20022;-72
2022/03/22 14:08:27;;;;;;;12.00;6.47;;;;;;;;;;5021212;28;20026;-75
2022/03/22 14:10:54;;;;;;;15.65;6.93;;;;;;;;;;5021118;28;20073;-73
2022/03/22 14:13:22;;;;;;;12.30;7.00;;;;;;;;;;5021231;28;20040;-72
2022/03/22 14:15:48;;;;;;;12.90;6.18;;;;;;;;;;5021380;28;20241;-73
2022/03/22 14:18:13;;;;;;;14.15;6.90;;;;;;;;;;5020054;28;20385;-73
2022/03/22 14:20:39;;;;;;;14.15;6.80;;;;;;;;;;5020358;28;20061;-73
2022/03/22 14:23:06;;;;;;;12.30;6.78;;;;;;;;;;5020708;28;20089;-73
2022/03/22 14:25:32;;;;;;;16.05;7.30;;;;;;;;;;5020826;28;20029;-73
2022/03/22 14:27:58;;;;;;;12.05;6.93;;;;;;;;;;5020897;28;20310;-72
2022/03/22 14:30:26;;;;;;;11.98;7.30;;;;;;;;;;5020492;28;20030;-73
2022/03/22 14:32:54;;;;;;;12.07;6.95;;;;;;;;;;5020720;28;20056;-72
2022/03/22 14:38:06;;;;;;;14.23;7.00;;;;;;;;;;5020246;28;20087;-72
2022/03/22 14:40:32;;;;;;;17.15;6.60;;;;;;;;;;5020466;28;20057;-72
2022/03/22 14:42:58;;;;;;;11.70;6.60;;;;;;;;;;5020740;28;20026;-72
2022/03/22 14:45:25;;;;;;;13.15;6.72;;;;;;;;;;5020852;28;20024;-73
2022/03/22 14:47:51;;;;;;;11.77;7.25;;;;;;;;;;5020607;28;20060;-72
2022/03/22 14:50:18;;;;;;;18.52;7.20;;;;;;;;;;5020363;28;20318;-72
2022/03/22 14:55:29;;;;;;;12.77;7.07;;;;;;;;;;5020467;28;20109;-72
2022/03/22 15:00:41;;;;;;;12.73;6.33;;;;;;;;;;5020625;28;20029;-72
2022/03/22 15:03:11;;;;;;;12.50;6.80;;;;;;;;;;5020584;28;20037;-72
2022/03/22 15:05:47;;;;;;;13.35;6.70;;;;;;;;;;5020166;28;20030;-72
2022/03/22 15:08:13;;;;;;;12.63;7.03;;;;;;;;;;5020304;28;20376;-72
2022/03/22 15:10:43;;;;;;;13.60;7.00;;;;;;;;;;5020130;28;20117;-72
2022/03/22 15:13:10;;;;;;;12.68;6.95;;;;;;;;;;5020810;28;20026;-73
2022/03/22 15:15:37;;;;;;;16.45;7.25;;;;;;;;;;5019185;28;20026;-74